CTV251 WIII-WARR
Flight info
| Callsign | CTV251 |
|---|---|
| Flight time | N/A |
| Altitude | 29000 |
| Route | CA T3 BA |
| Aircraft | A20N/M-SDE2E3FGHIRWXY/LB1 |
Departure
| Time | 2026-05-04 14:34 |
|---|---|
| Airport | Soekarno-Hatta International Airport (WIII) |
Arrival
| Time | N/A |
|---|---|
| Airport | Juanda International Airport (WARR) |
| Time | Latitude | Longitude | Altitude | Speed | Heading |
|---|---|---|---|---|---|
| 2026-05-04 13:51 | -6.13258 | 106.65758 | 38 ft | 0 kts | 278° |
| 2026-05-04 14:21 | -6.13262 | 106.65796 | 38 ft | 4 kts | 271° |
| 2026-05-04 14:21 | -6.13259 | 106.65821 | 38 ft | 4 kts | 224° |
| 2026-05-04 14:21 | -6.13251 | 106.65826 | 35 ft | 0 kts | 185° |
| 2026-05-04 14:27 | -6.13260 | 106.65825 | 36 ft | 3 kts | 185° |
| 2026-05-04 14:27 | -6.13296 | 106.65822 | 38 ft | 7 kts | 185° |
| 2026-05-04 14:27 | -6.13351 | 106.65841 | 38 ft | 10 kts | 139° |
| 2026-05-04 14:28 | -6.13352 | 106.65896 | 38 ft | 9 kts | 74° |
| 2026-05-04 14:28 | -6.13325 | 106.65966 | 36 ft | 12 kts | 68° |
| 2026-05-04 14:28 | -6.13289 | 106.66056 | 37 ft | 15 kts | 68° |
| 2026-05-04 14:28 | -6.13244 | 106.66166 | 37 ft | 18 kts | 68° |
| 2026-05-04 14:29 | -6.13137 | 106.66433 | 36 ft | 23 kts | 68° |
| 2026-05-04 14:29 | -6.13011 | 106.66750 | 38 ft | 25 kts | 68° |
| 2026-05-04 14:30 | -6.12945 | 106.66916 | 38 ft | 26 kts | 68° |
| 2026-05-04 14:30 | -6.12875 | 106.67091 | 37 ft | 27 kts | 68° |
| 2026-05-04 14:30 | -6.12830 | 106.67391 | 37 ft | 13 kts | 166° |
| 2026-05-04 14:31 | -6.12874 | 106.67404 | 39 ft | 0 kts | 162° |
| 2026-05-04 14:32 | -6.12879 | 106.67405 | 39 ft | 2 kts | 162° |
| 2026-05-04 14:32 | -6.12903 | 106.67414 | 39 ft | 5 kts | 156° |
| 2026-05-04 14:33 | -6.12946 | 106.67428 | 39 ft | 8 kts | 175° |
| 2026-05-04 14:33 | -6.13004 | 106.67412 | 40 ft | 10 kts | 200° |
| 2026-05-04 14:33 | -6.13059 | 106.67360 | 39 ft | 12 kts | 249° |
| 2026-05-04 14:33 | -6.13109 | 106.67234 | 40 ft | 37 kts | 248° |
| 2026-05-04 14:34 | -6.13295 | 106.66772 | 42 ft | 102 kts | 248° |
| 2026-05-04 14:34 | -6.13626 | 106.65939 | 39 ft | 152 kts | 249° |
| 2026-05-04 14:34 | -6.14030 | 106.64880 | 378 ft | 166 kts | 248° |
| 2026-05-04 14:34 | -6.14450 | 106.63768 | 875 ft | 173 kts | 248° |
| 2026-05-04 14:35 | -6.14871 | 106.62636 | 1503 ft | 171 kts | 249° |
| 2026-05-04 14:35 | -6.15285 | 106.61524 | 2121 ft | 170 kts | 247° |
| 2026-05-04 14:35 | -6.15787 | 106.60388 | 2461 ft | 187 kts | 236° |
| 2026-05-04 14:35 | -6.16807 | 106.59535 | 2763 ft | 202 kts | 197° |
| 2026-05-04 14:36 | -6.18256 | 106.59455 | 3101 ft | 221 kts | 161° |
| 2026-05-04 14:36 | -6.19574 | 106.60285 | 3717 ft | 230 kts | 127° |
| 2026-05-04 14:36 | -6.20223 | 106.61719 | 4643 ft | 233 kts | 96° |
| 2026-05-04 14:36 | -6.20023 | 106.63329 | 5555 ft | 236 kts | 69° |
| 2026-05-04 14:37 | -6.19340 | 106.64835 | 6505 ft | 239 kts | 65° |
| 2026-05-04 14:37 | -6.18710 | 106.66394 | 7393 ft | 243 kts | 72° |
| 2026-05-04 14:37 | -6.18269 | 106.68047 | 8245 ft | 247 kts | 78° |
| 2026-05-04 14:37 | -6.18188 | 106.69773 | 9089 ft | 250 kts | 98° |
| 2026-05-04 14:38 | -6.18729 | 106.71438 | 9942 ft | 254 kts | 116° |
| 2026-05-04 14:38 | -6.19551 | 106.73076 | 10429 ft | 273 kts | 116° |
| 2026-05-04 14:38 | -6.20440 | 106.74859 | 10809 ft | 293 kts | 116° |
| 2026-05-04 14:38 | -6.21352 | 106.76711 | 11571 ft | 297 kts | 115° |
| 2026-05-04 14:39 | -6.22270 | 106.78587 | 12384 ft | 301 kts | 115° |
| 2026-05-04 14:39 | -6.23198 | 106.80491 | 13170 ft | 305 kts | 115° |
| 2026-05-04 14:39 | -6.24127 | 106.82402 | 13926 ft | 309 kts | 115° |
| 2026-05-04 14:40 | -6.26042 | 106.86341 | 15313 ft | 316 kts | 115° |
| 2026-05-04 14:40 | -6.27013 | 106.88340 | 15998 ft | 320 kts | 115° |
| 2026-05-04 14:40 | -6.27669 | 106.89679 | 16394 ft | 326 kts | 116° |
| 2026-05-04 14:40 | -6.29116 | 106.92466 | 16658 ft | 352 kts | 117° |
| 2026-05-04 14:41 | -6.30301 | 106.94693 | 16825 ft | 371 kts | 117° |
| 2026-05-04 14:41 | -6.31537 | 106.97019 | 17234 ft | 379 kts | 117° |
| 2026-05-04 14:41 | -6.34030 | 107.01745 | 18457 ft | 386 kts | 117° |
| 2026-05-04 14:42 | -6.36550 | 107.06549 | 19568 ft | 390 kts | 117° |
| 2026-05-04 14:42 | -6.37818 | 107.08970 | 20118 ft | 393 kts | 117° |
| 2026-05-04 14:42 | -6.39095 | 107.11408 | 20655 ft | 395 kts | 117° |
| 2026-05-04 14:43 | -6.40383 | 107.13867 | 21207 ft | 398 kts | 117° |
| 2026-05-04 14:43 | -6.41676 | 107.16336 | 21743 ft | 401 kts | 117° |
| 2026-05-04 14:43 | -6.42978 | 107.18822 | 22267 ft | 403 kts | 117° |
| 2026-05-04 14:43 | -6.44290 | 107.21329 | 22788 ft | 406 kts | 117° |
| 2026-05-04 14:44 | -6.45609 | 107.23848 | 23304 ft | 408 kts | 117° |
| 2026-05-04 14:44 | -6.46921 | 107.26356 | 23619 ft | 412 kts | 117° |
| 2026-05-04 14:44 | -6.48256 | 107.28906 | 23707 ft | 412 kts | 117° |
| 2026-05-04 14:44 | -6.49590 | 107.31457 | 23794 ft | 412 kts | 116° |
| 2026-05-04 14:45 | -6.50925 | 107.34009 | 23876 ft | 413 kts | 116° |
| 2026-05-04 14:45 | -6.52261 | 107.36564 | 23933 ft | 413 kts | 116° |
| 2026-05-04 14:45 | -6.53600 | 107.39125 | 23944 ft | 414 kts | 116° |
| 2026-05-04 14:45 | -6.54936 | 107.41701 | 23946 ft | 417 kts | 115° |
| 2026-05-04 14:46 | -6.56051 | 107.44390 | 23951 ft | 417 kts | 108° |
| 2026-05-04 14:46 | -6.56834 | 107.47199 | 23953 ft | 416 kts | 101° |
| 2026-05-04 14:46 | -6.57282 | 107.50069 | 23958 ft | 416 kts | 96° |
| 2026-05-04 14:46 | -6.57615 | 107.52978 | 24265 ft | 419 kts | 96° |
| 2026-05-04 14:47 | -6.57961 | 107.55885 | 24746 ft | 420 kts | 96° |
| 2026-05-04 14:47 | -6.58313 | 107.58813 | 25142 ft | 423 kts | 96° |
| 2026-05-04 14:47 | -6.58666 | 107.61756 | 25534 ft | 425 kts | 96° |
| 2026-05-04 14:47 | -6.59021 | 107.64721 | 25925 ft | 428 kts | 96° |
| 2026-05-04 14:48 | -6.59375 | 107.67696 | 26314 ft | 430 kts | 96° |
| 2026-05-04 14:48 | -6.59727 | 107.70653 | 26668 ft | 433 kts | 96° |
| 2026-05-04 14:48 | -6.60086 | 107.73671 | 27038 ft | 436 kts | 96° |
| 2026-05-04 14:48 | -6.60447 | 107.76710 | 27378 ft | 438 kts | 96° |
| 2026-05-04 14:49 | -6.60811 | 107.79767 | 27730 ft | 441 kts | 96° |
| 2026-05-04 14:49 | -6.61175 | 107.82834 | 28083 ft | 443 kts | 96° |
| 2026-05-04 14:49 | -6.61542 | 107.85922 | 28407 ft | 446 kts | 95° |
| 2026-05-04 14:49 | -6.61911 | 107.89023 | 28740 ft | 448 kts | 95° |
| 2026-05-04 14:50 | -6.62281 | 107.92144 | 28849 ft | 449 kts | 95° |
| 2026-05-04 14:50 | -6.62651 | 107.95262 | 28933 ft | 450 kts | 95° |
| 2026-05-04 14:50 | -6.63390 | 108.01512 | 28939 ft | 449 kts | 95° |
| 2026-05-04 14:51 | -6.64128 | 108.07756 | 28933 ft | 449 kts | 95° |
| 2026-05-04 14:51 | -6.64866 | 108.13998 | 28933 ft | 449 kts | 95° |
| 2026-05-04 14:52 | -6.65597 | 108.20204 | 28944 ft | 449 kts | 95° |
| 2026-05-04 14:52 | -6.66213 | 108.25432 | 28944 ft | 449 kts | 95° |
| 2026-05-04 14:53 | -6.67068 | 108.32689 | 28947 ft | 449 kts | 95° |
| 2026-05-04 14:53 | -6.67802 | 108.38932 | 28947 ft | 449 kts | 95° |
| 2026-05-04 14:54 | -6.68536 | 108.45184 | 28939 ft | 451 kts | 95° |
| 2026-05-04 14:54 | -6.69271 | 108.51452 | 28938 ft | 450 kts | 95° |
| 2026-05-04 14:55 | -6.69881 | 108.56651 | 28935 ft | 450 kts | 96° |
| 2026-05-04 14:55 | -6.70811 | 108.62891 | 28933 ft | 451 kts | 98° |
| 2026-05-04 14:56 | -6.71811 | 108.69121 | 28935 ft | 451 kts | 97° |
| 2026-05-04 14:56 | -6.72774 | 108.75307 | 28925 ft | 451 kts | 97° |
| 2026-05-04 14:57 | -6.73729 | 108.81529 | 28925 ft | 449 kts | 97° |
| 2026-05-04 14:57 | -6.74683 | 108.87752 | 28922 ft | 449 kts | 97° |
| 2026-05-04 14:58 | -6.75635 | 108.93965 | 28922 ft | 449 kts | 97° |
| 2026-05-04 14:58 | -6.76586 | 109.00177 | 28925 ft | 449 kts | 97° |
| 2026-05-04 14:59 | -6.77536 | 109.06389 | 28925 ft | 449 kts | 97° |
| 2026-05-04 15:00 | -6.78959 | 109.15696 | 28922 ft | 446 kts | 97° |
| 2026-05-04 15:00 | -6.79901 | 109.21869 | 28924 ft | 447 kts | 97° |
| 2026-05-04 15:01 | -6.81308 | 109.31099 | 28917 ft | 447 kts | 97° |
| 2026-05-04 15:01 | -6.82249 | 109.37278 | 28917 ft | 447 kts | 97° |
| 2026-05-04 15:02 | -6.83190 | 109.43466 | 28914 ft | 447 kts | 97° |
| 2026-05-04 15:02 | -6.84128 | 109.49640 | 28914 ft | 444 kts | 98° |
| 2026-05-04 15:03 | -6.85060 | 109.55785 | 28911 ft | 444 kts | 98° |
| 2026-05-04 15:03 | -6.85994 | 109.61934 | 28911 ft | 444 kts | 98° |
| 2026-05-04 15:04 | -6.86926 | 109.68085 | 28909 ft | 445 kts | 98° |
| 2026-05-04 15:04 | -6.87859 | 109.74241 | 28931 ft | 445 kts | 98° |
| 2026-05-04 15:05 | -6.88784 | 109.80355 | 28928 ft | 444 kts | 98° |
| 2026-05-04 15:05 | -6.89713 | 109.86491 | 28928 ft | 444 kts | 97° |
| 2026-05-04 15:06 | -6.90639 | 109.92623 | 28930 ft | 444 kts | 97° |
| 2026-05-04 15:07 | -6.92025 | 110.01806 | 28925 ft | 444 kts | 97° |
| 2026-05-04 15:07 | -6.92951 | 110.07949 | 28920 ft | 444 kts | 97° |
| 2026-05-04 15:08 | -6.93875 | 110.14086 | 28930 ft | 444 kts | 97° |
| 2026-05-04 15:08 | -6.94800 | 110.20224 | 28932 ft | 443 kts | 97° |
| 2026-05-04 15:09 | -6.95721 | 110.26358 | 28936 ft | 443 kts | 97° |
| 2026-05-04 15:09 | -6.96638 | 110.32459 | 28939 ft | 443 kts | 97° |
| 2026-05-04 15:10 | -6.97541 | 110.41702 | 28939 ft | 442 kts | 90° |
| 2026-05-04 15:11 | -6.97703 | 110.50989 | 28932 ft | 443 kts | 90° |
| 2026-05-04 15:11 | -6.97817 | 110.57189 | 28906 ft | 442 kts | 90° |
| 2026-05-04 15:12 | -6.97928 | 110.63340 | 28903 ft | 442 kts | 90° |
| 2026-05-04 15:12 | -6.98038 | 110.69535 | 28901 ft | 442 kts | 90° |
| 2026-05-04 15:13 | -6.98147 | 110.75729 | 28898 ft | 443 kts | 90° |
| 2026-05-04 15:13 | -6.98255 | 110.81929 | 28900 ft | 443 kts | 90° |
| 2026-05-04 15:14 | -6.98363 | 110.88149 | 28903 ft | 444 kts | 90° |
| 2026-05-04 15:14 | -6.98470 | 110.94364 | 28903 ft | 444 kts | 90° |
| 2026-05-04 15:15 | -6.98577 | 111.00578 | 28905 ft | 444 kts | 90° |
| 2026-05-04 15:15 | -6.98629 | 111.03668 | 28798 ft | 444 kts | 90° |
| 2026-05-04 15:15 | -6.98682 | 111.06767 | 28553 ft | 442 kts | 91° |
| 2026-05-04 15:16 | -6.98786 | 111.12929 | 28049 ft | 439 kts | 91° |
| 2026-05-04 15:16 | -6.98837 | 111.16002 | 27805 ft | 437 kts | 91° |